Time;durP1;ratioP1;P1;durP2;ratioP2;P2;SDS_P1;SDS_P2;PMS_P1;PMS_P2;Temp;Humidity;BMP_temperature;BMP_pressure;BME280_temperature;BME280_humidity;BME280_pressure;Samples;Min_cycle;Max_cycle;Signal;HPM_P1;HPM_P2
2022/01/23 00:00:33;;;;;;;63.08;35.35;;;5.70;99.90;;;;;;4971477;28;20019;-78
2022/01/23 00:03:01;;;;;;;65.35;35.22;;;5.80;99.90;;;;;;4971954;28;20105;-77
2022/01/23 00:05:34;;;;;;;67.95;34.90;;;5.70;99.90;;;;;;4973603;28;20079;-77
2022/01/23 00:08:01;;;;;;;68.78;36.47;;;5.70;99.90;;;;;;4973271;28;20077;-77
2022/01/23 00:10:27;;;;;;;76.13;36.40;;;5.70;99.90;;;;;;4972818;28;20109;-78
2022/01/23 00:13:05;;;;;;;72.63;36.33;;;5.70;99.90;;;;;;4971820;28;20508;-77
2022/01/23 00:18:15;;;;;;;67.35;36.70;;;5.70;99.90;;;;;;4971983;28;20510;-77
2022/01/23 00:20:40;;;;;;;65.38;36.40;;;5.70;99.90;;;;;;4971908;28;20022;-77
2022/01/23 00:23:14;;;;;;;72.00;36.30;;;5.70;99.90;;;;;;4971840;28;20046;-79
2022/01/23 00:31:08;;;;;;;66.85;35.50;;;5.70;99.90;;;;;;4973063;28;20105;-77
2022/01/23 00:33:33;;;;;;;68.68;36.33;;;5.70;99.90;;;;;;4972271;28;20046;-78
2022/01/23 00:35:59;;;;;;;65.32;36.20;;;5.60;99.90;;;;;;4972787;28;20526;-77
2022/01/23 00:38:24;;;;;;;64.88;34.63;;;5.60;99.90;;;;;;4971262;28;20039;-78
2022/01/23 00:40:50;;;;;;;65.05;36.25;;;5.70;99.90;;;;;;4971666;28;20058;-77
2022/01/23 00:49:14;;;;;;;63.88;34.28;;;5.70;99.90;;;;;;4972743;28;20054;-79
2022/01/23 00:51:38;;;;;;;64.28;34.85;;;5.70;99.90;;;;;;4963235;28;20037;-77
2022/01/23 00:54:07;;;;;;;62.33;34.38;;;5.70;99.90;;;;;;4963689;28;20070;-77
2022/01/23 00:56:33;;;;;;;66.72;35.38;;;5.70;99.90;;;;;;4972092;28;20081;-78
2022/01/23 00:58:59;;;;;;;64.72;34.47;;;5.70;99.90;;;;;;4970696;28;20058;-77
2022/01/23 01:01:25;;;;;;;67.55;35.05;;;5.70;99.90;;;;;;4972735;28;20455;-77
2022/01/23 01:03:50;;;;;;;64.65;35.03;;;5.70;99.90;;;;;;4973368;28;20106;-77
2022/01/23 01:06:17;;;;;;;67.63;34.78;;;5.70;99.90;;;;;;4978280;28;20074;-77
2022/01/23 01:08:43;;;;;;;64.55;34.15;;;5.80;99.90;;;;;;4970682;28;20789;-78
2022/01/23 01:11:34;;;;;;;68.88;34.50;;;5.70;99.90;;;;;;4971255;28;20061;-77
2022/01/23 01:32:58;;;;;;;60.22;31.67;;;5.70;99.90;;;;;;4963094;28;20031;-78
2022/01/23 01:35:33;;;;;;;67.18;33.10;;;5.60;99.90;;;;;;4964366;28;20047;-77
2022/01/23 01:37:59;;;;;;;63.85;33.45;;;5.60;99.90;;;;;;4966519;28;20022;-78
2022/01/23 01:40:25;;;;;;;61.60;32.28;;;5.60;99.90;;;;;;4963112;28;20372;-78
2022/01/23 01:42:52;;;;;;;60.50;32.70;;;5.60;99.90;;;;;;4956862;28;20384;-77
2022/01/23 01:45:22;;;;;;;67.00;34.90;;;5.60;99.90;;;;;;4955228;28;20607;-77
2022/01/23 01:47:51;;;;;;;66.45;33.95;;;5.70;99.90;;;;;;4965673;28;20033;-78
2022/01/23 01:50:18;;;;;;;61.83;32.47;;;5.60;99.90;;;;;;4970624;28;20041;-78
2022/01/23 01:52:43;;;;;;;59.80;32.00;;;5.70;99.90;;;;;;4971983;28;20034;-77
2022/01/23 01:55:13;;;;;;;59.22;32.80;;;5.70;99.90;;;;;;4971968;28;20039;-77
2022/01/23 01:57:44;;;;;;;62.03;33.63;;;5.70;99.90;;;;;;4970780;28;20034;-77
2022/01/23 02:10:37;;;;;;;59.08;31.48;;;5.60;99.90;;;;;;4969577;28;20061;-78
2022/01/23 02:13:12;;;;;;;62.65;31.48;;;5.60;99.90;;;;;;4954055;28;20056;-78
2022/01/23 02:23:52;;;;;;;54.35;29.08;;;5.50;99.90;;;;;;4975990;28;20521;-77
2022/01/23 02:50:55;;;;;;;56.22;31.08;;;5.50;99.90;;;;;;4972958;28;20113;-76
2022/01/23 02:53:52;;;;;;;56.95;28.90;;;5.50;99.90;;;;;;4969958;28;20027;-77
2022/01/23 02:56:22;;;;;;;58.90;27.80;;;5.50;99.90;;;;;;4974366;28;20035;-77
2022/01/23 02:58:58;;;;;;;59.08;30.63;;;5.50;99.90;;;;;;4973476;28;20023;-79
2022/01/23 03:01:27;;;;;;;56.97;30.55;;;5.60;99.90;;;;;;4973716;28;20039;-77
2022/01/23 03:04:00;;;;;;;59.30;29.23;;;5.50;99.90;;;;;;4958577;28;20061;-77
2022/01/23 03:30:23;;;;;;;57.03;30.63;;;5.60;99.90;;;;;;4968156;28;20124;-76
2022/01/23 03:32:51;;;;;;;56.88;29.20;;;5.70;99.90;;;;;;4973577;28;20034;-77
2022/01/23 03:35:19;;;;;;;52.45;28.80;;;5.60;99.90;;;;;;4972309;28;20049;-77
2022/01/23 03:37:46;;;;;;;60.13;29.40;;;5.60;99.90;;;;;;4973688;28;20030;-77
2022/01/23 03:40:12;;;;;;;58.67;30.05;;;5.60;99.90;;;;;;4974422;28;20035;-77
2022/01/23 03:42:39;;;;;;;57.40;29.27;;;5.60;99.90;;;;;;4971780;28;20475;-77
2022/01/23 03:45:56;;;;;;;56.15;28.60;;;5.60;99.90;;;;;;4972223;28;20050;-77
2022/01/23 03:50:41;;;;;;;57.80;27.85;;;5.60;99.90;;;;;;4968355;28;20046;-77
2022/01/23 03:53:07;;;;;;;53.77;28.57;;;5.60;99.90;;;;;;4973976;28;20407;-77
2022/01/23 03:55:33;;;;;;;59.85;30.55;;;5.60;99.90;;;;;;4972787;28;20051;-77
2022/01/23 03:57:59;;;;;;;54.65;28.67;;;5.60;99.90;;;;;;4957071;28;20027;-77
2022/01/23 04:00:24;;;;;;;58.17;29.20;;;5.60;99.90;;;;;;4973580;28;20373;-77
2022/01/23 04:02:50;;;;;;;52.13;28.13;;;5.60;99.90;;;;;;4972836;28;20037;-77
2022/01/23 04:05:16;;;;;;;60.83;29.42;;;5.60;99.90;;;;;;4973335;28;20030;-77
2022/01/23 04:07:42;;;;;;;63.03;29.52;;;5.70;99.90;;;;;;4971787;28;20043;-77
2022/01/23 04:10:10;;;;;;;61.47;29.35;;;5.70;99.90;;;;;;4974304;28;20034;-78
2022/01/23 04:12:55;;;;;;;62.15;29.40;;;5.70;99.90;;;;;;4967339;28;20027;-78
2022/01/23 04:15:37;;;;;;;55.58;28.27;;;5.70;99.90;;;;;;4973275;28;20089;-77
2022/01/23 04:20:49;;;;;;;56.50;29.58;;;5.70;99.90;;;;;;4973598;28;20035;-78
2022/01/23 04:34:34;;;;;;;54.15;28.88;;;5.70;99.90;;;;;;4973055;28;20062;-77
2022/01/23 04:45:33;;;;;;;50.72;26.98;;;5.60;99.90;;;;;;4958297;28;20170;-76
2022/01/23 05:04:28;;;;;;;57.88;28.80;;;5.60;99.90;;;;;;4970604;28;20038;-77
2022/01/23 05:07:09;;;;;;;59.90;28.58;;;5.60;99.90;;;;;;4953926;28;20038;-78
2022/01/23 05:09:34;;;;;;;57.45;28.00;;;5.60;99.90;;;;;;4972183;28;20035;-78
2022/01/23 05:12:08;;;;;;;66.10;32.35;;;5.70;99.90;;;;;;4971460;28;20369;-77
2022/01/23 05:14:40;;;;;;;64.30;30.77;;;5.60;99.90;;;;;;4969524;28;20898;-77
2022/01/23 05:17:09;;;;;;;63.05;30.15;;;5.70;99.90;;;;;;4968983;28;20023;-76
2022/01/23 05:19:34;;;;;;;61.08;30.15;;;5.70;99.90;;;;;;4972133;28;20042;-77
2022/01/23 05:24:39;;;;;;;63.28;31.95;;;5.70;99.90;;;;;;4971833;28;20050;-77
2022/01/23 05:27:07;;;;;;;66.65;32.10;;;5.70;99.90;;;;;;4970889;28;20554;-77
2022/01/23 05:29:34;;;;;;;65.88;31.23;;;5.70;99.90;;;;;;4970756;28;20484;-77
2022/01/23 05:31:59;;;;;;;68.63;32.55;;;5.70;99.90;;;;;;4971645;28;20398;-77
2022/01/23 05:34:26;;;;;;;67.25;32.63;;;5.70;99.90;;;;;;4971941;28;20038;-77
2022/01/23 05:36:52;;;;;;;61.40;30.40;;;5.70;99.90;;;;;;4970903;28;20035;-76
2022/01/23 05:39:21;;;;;;;62.17;30.35;;;5.70;99.90;;;;;;4971560;28;20061;-77
2022/01/23 05:41:47;;;;;;;65.75;32.60;;;5.70;99.90;;;;;;4969869;28;20065;-76
2022/01/23 05:44:13;;;;;;;71.47;33.67;;;5.70;99.90;;;;;;4969016;28;20059;-77
2022/01/23 05:46:38;;;;;;;68.90;32.10;;;5.70;99.90;;;;;;4971399;28;20525;-77
2022/01/23 05:49:05;;;;;;;63.75;31.80;;;5.70;99.90;;;;;;4970022;28;20557;-78
2022/01/23 05:51:30;;;;;;;68.70;32.17;;;5.70;99.90;;;;;;4969285;28;20479;-78
2022/01/23 05:53:56;;;;;;;58.22;28.88;;;5.80;99.90;;;;;;4964657;28;20038;-76
2022/01/23 05:56:21;;;;;;;64.75;30.65;;;5.80;99.90;;;;;;4970968;28;20063;-77
2022/01/23 05:58:47;;;;;;;59.17;28.50;;;5.80;99.90;;;;;;4972123;28;20031;-77
2022/01/23 06:01:12;;;;;;;65.78;31.02;;;5.70;99.90;;;;;;4971738;28;20022;-76
2022/01/23 06:03:38;;;;;;;64.78;31.05;;;5.70;99.90;;;;;;4969465;28;20039;-76
2022/01/23 06:06:04;;;;;;;69.68;32.65;;;5.70;99.90;;;;;;4965533;28;20038;-77
2022/01/23 06:08:30;;;;;;;66.15;32.20;;;5.70;99.90;;;;;;4951855;28;20023;-77
2022/01/23 06:10:58;;;;;;;71.65;33.05;;;5.70;99.90;;;;;;4978911;28;20019;-76
2022/01/23 06:13:26;;;;;;;68.68;32.05;;;5.70;99.90;;;;;;4973736;28;20030;-77
2022/01/23 06:15:55;;;;;;;69.85;32.42;;;5.70;99.90;;;;;;4971213;28;20117;-77
2022/01/23 06:18:21;;;;;;;73.90;31.55;;;5.70;99.90;;;;;;4969620;28;20102;-77
2022/01/23 06:20:47;;;;;;;67.40;30.73;;;5.80;99.90;;;;;;4972079;28;20137;-77
2022/01/23 06:23:13;;;;;;;67.28;30.70;;;5.70;99.90;;;;;;4970829;28;20050;-77
2022/01/23 06:25:43;;;;;;;71.22;31.65;;;5.80;99.90;;;;;;4970927;28;20061;-77
2022/01/23 06:28:09;;;;;;;70.32;33.13;;;5.80;99.90;;;;;;4971711;28;20023;-77
2022/01/23 06:30:35;;;;;;;77.32;31.45;;;5.80;99.90;;;;;;4968022;28;20027;-77
2022/01/23 06:33:03;;;;;;;69.45;30.95;;;5.80;99.90;;;;;;4967654;28;20035;-77
2022/01/23 06:35:29;;;;;;;66.88;31.02;;;5.80;99.90;;;;;;4981777;28;20030;-77
2022/01/23 06:37:54;;;;;;;70.15;30.63;;;5.80;99.90;;;;;;4970799;28;20041;-77
2022/01/23 06:40:20;;;;;;;69.03;31.30;;;5.80;99.90;;;;;;4967046;28;20034;-78
2022/01/23 06:42:46;;;;;;;66.15;32.03;;;5.90;99.90;;;;;;4970502;28;20436;-77
2022/01/23 06:45:11;;;;;;;71.15;31.63;;;5.80;99.90;;;;;;4968447;28;20203;-78
2022/01/23 06:47:37;;;;;;;65.07;30.35;;;5.80;99.90;;;;;;4969519;28;20027;-77
2022/01/23 06:50:03;;;;;;;66.35;30.42;;;5.80;99.90;;;;;;4969109;28;20435;-77
2022/01/23 06:52:29;;;;;;;74.60;32.47;;;5.80;99.90;;;;;;4964504;28;20394;-77
2022/01/23 06:54:54;;;;;;;70.13;31.92;;;5.80;99.90;;;;;;4982551;28;20042;-77
2022/01/23 06:57:20;;;;;;;73.65;30.95;;;5.80;99.90;;;;;;4966864;28;20018;-77
2022/01/23 06:59:46;;;;;;;68.50;30.08;;;5.80;99.90;;;;;;4953364;28;20833;-76
2022/01/23 07:02:11;;;;;;;64.57;30.25;;;5.80;99.90;;;;;;4975070;28;20199;-76
2022/01/23 07:04:37;;;;;;;69.35;30.05;;;5.80;99.90;;;;;;4973276;28;20033;-76
2022/01/23 07:07:03;;;;;;;71.10;31.98;;;5.70;99.90;;;;;;4961881;28;20027;-76
2022/01/23 07:09:28;;;;;;;83.25;34.83;;;5.70;99.90;;;;;;4964027;28;20027;-76
2022/01/23 07:11:54;;;;;;;75.47;33.88;;;5.70;99.90;;;;;;4971041;28;20049;-77
2022/01/23 07:14:20;;;;;;;79.15;34.20;;;5.70;99.90;;;;;;4970057;28;20103;-76
2022/01/23 07:16:46;;;;;;;80.30;33.75;;;5.60;99.90;;;;;;4972626;28;20041;-76
2022/01/23 07:19:12;;;;;;;79.53;36.72;;;5.60;99.90;;;;;;4973105;28;20458;-76
2022/01/23 07:21:37;;;;;;;77.00;35.67;;;5.60;99.90;;;;;;4969669;28;20029;-78
2022/01/23 07:24:03;;;;;;;82.40;36.60;;;5.60;99.90;;;;;;4970431;28;20066;-77
2022/01/23 07:26:30;;;;;;;71.88;33.13;;;5.60;99.90;;;;;;4972251;28;20122;-77
2022/01/23 07:28:58;;;;;;;85.38;36.40;;;5.60;99.90;;;;;;4966216;28;20054;-77
2022/01/23 07:34:06;;;;;;;88.22;36.03;;;5.60;99.90;;;;;;4969463;28;20043;-76
2022/01/23 07:36:32;;;;;;;84.35;35.13;;;5.70;99.90;;;;;;4967699;28;20015;-76
2022/01/23 07:38:57;;;;;;;86.95;36.67;;;5.60;99.90;;;;;;4975031;28;20027;-76
2022/01/23 07:41:23;;;;;;;82.88;35.80;;;5.60;99.90;;;;;;4974483;28;20114;-77
2022/01/23 07:43:49;;;;;;;84.90;36.17;;;5.70;99.90;;;;;;4971420;28;20027;-75
2022/01/23 07:46:15;;;;;;;89.75;35.50;;;5.60;99.90;;;;;;4969069;28;20117;-75
2022/01/23 07:48:40;;;;;;;81.25;35.92;;;5.60;99.90;;;;;;4971612;28;20448;-75
2022/01/23 07:51:06;;;;;;;77.05;35.60;;;5.70;99.90;;;;;;4973432;28;20070;-75
2022/01/23 07:53:31;;;;;;;100.03;36.08;;;5.70;99.90;;;;;;4970946;28;20114;-76
2022/01/23 07:55:57;;;;;;;85.78;34.90;;;5.70;99.90;;;;;;4966099;28;20062;-76
2022/01/23 07:58:23;;;;;;;81.65;32.58;;;5.70;99.90;;;;;;4973142;28;20035;-75
2022/01/23 08:00:48;;;;;;;74.97;32.80;;;5.70;99.90;;;;;;4972245;28;20027;-75
2022/01/23 08:03:14;;;;;;;78.97;33.17;;;5.70;99.90;;;;;;4972366;28;20037;-76
2022/01/23 08:05:43;;;;;;;82.65;35.60;;;5.70;99.90;;;;;;4972185;28;20459;-76
2022/01/23 08:08:09;;;;;;;84.20;36.42;;;5.80;99.90;;;;;;4973517;28;20027;-76
2022/01/23 08:10:35;;;;;;;84.50;35.35;;;5.80;99.90;;;;;;4953477;28;20549;-76
2022/01/23 08:13:03;;;;;;;83.65;37.83;;;5.80;99.90;;;;;;4979716;28;20030;-76
2022/01/23 08:15:29;;;;;;;90.82;37.20;;;5.80;99.90;;;;;;4973006;28;20042;-76
2022/01/23 08:18:02;;;;;;;90.85;37.33;;;5.80;99.90;;;;;;4972781;28;20372;-76
2022/01/23 08:20:28;;;;;;;92.13;36.25;;;5.90;99.90;;;;;;4967539;28;20034;-77
2022/01/23 08:22:54;;;;;;;93.22;38.72;;;5.90;99.90;;;;;;4972773;28;20074;-76
2022/01/23 08:25:20;;;;;;;89.13;37.25;;;5.90;99.90;;;;;;4972532;28;20054;-76
2022/01/23 08:27:45;;;;;;;81.28;36.40;;;5.90;99.90;;;;;;4972628;28;20035;-77
2022/01/23 08:30:13;;;;;;;84.22;36.42;;;5.90;99.90;;;;;;4956141;28;20042;-77
2022/01/23 08:32:39;;;;;;;95.07;37.17;;;5.90;99.90;;;;;;4972500;28;20034;-76
2022/01/23 08:35:05;;;;;;;87.35;36.78;;;5.90;99.90;;;;;;4973822;28;20088;-78
2022/01/23 08:37:31;;;;;;;100.35;37.80;;;5.90;99.90;;;;;;4971711;28;20030;-77
2022/01/23 08:39:57;;;;;;;99.35;38.92;;;6.00;99.90;;;;;;4973131;28;20074;-76
2022/01/23 08:42:22;;;;;;;90.20;38.78;;;6.00;99.90;;;;;;4965853;28;20023;-77
2022/01/23 08:44:50;;;;;;;85.18;35.90;;;6.10;99.90;;;;;;4973028;28;20041;-76
2022/01/23 08:47:17;;;;;;;81.25;36.33;;;6.10;99.90;;;;;;4972119;28;20356;-77
2022/01/23 08:49:45;;;;;;;86.57;36.10;;;6.10;99.90;;;;;;4970042;28;20085;-78
2022/01/23 08:52:12;;;;;;;83.85;37.60;;;6.10;99.90;;;;;;4970859;28;20034;-77
2022/01/23 08:54:38;;;;;;;97.53;38.45;;;6.10;99.90;;;;;;4972584;28;20066;-76
2022/01/23 08:57:04;;;;;;;95.18;38.38;;;6.20;99.90;;;;;;4972561;28;20058;-77
2022/01/23 08:59:29;;;;;;;95.15;38.85;;;6.20;99.90;;;;;;4969171;28;20027;-75
2022/01/23 09:01:55;;;;;;;85.57;37.88;;;6.30;99.90;;;;;;4970393;28;20045;-76
2022/01/23 09:04:20;;;;;;;80.78;36.40;;;6.30;99.90;;;;;;4970589;28;20403;-76
2022/01/23 09:06:47;;;;;;;82.57;36.78;;;6.30;99.90;;;;;;4968571;28;20034;-76
2022/01/23 09:09:20;;;;;;;84.63;36.38;;;6.20;99.90;;;;;;4972456;28;20046;-76
2022/01/23 09:14:39;;;;;;;82.22;37.70;;;6.20;99.90;;;;;;4959658;28;20610;-77
2022/01/23 09:17:05;;;;;;;89.32;39.75;;;6.30;99.90;;;;;;4969050;28;20027;-76
2022/01/23 09:19:31;;;;;;;89.15;38.72;;;6.30;99.90;;;;;;4972481;28;20479;-77
2022/01/23 09:21:57;;;;;;;87.20;37.60;;;6.40;99.90;;;;;;4954581;28;20030;-76
2022/01/23 09:24:25;;;;;;;88.85;37.92;;;6.50;99.90;;;;;;4966461;28;20511;-76
2022/01/23 09:27:01;;;;;;;86.85;37.95;;;6.50;99.90;;;;;;4969738;28;20387;-76
2022/01/23 09:29:34;;;;;;;88.63;39.25;;;6.50;99.90;;;;;;4965632;28;20034;-75
2022/01/23 09:32:01;;;;;;;87.50;37.78;;;6.50;99.90;;;;;;4970956;28;20042;-76
2022/01/23 09:34:32;;;;;;;84.35;37.17;;;6.60;99.90;;;;;;4968140;28;20430;-77
2022/01/23 09:37:04;;;;;;;101.30;42.20;;;6.70;99.90;;;;;;4972329;28;20023;-77
2022/01/23 09:39:31;;;;;;;90.07;37.55;;;6.70;99.90;;;;;;4968782;28;20030;-77
2022/01/23 09:42:01;;;;;;;87.60;38.05;;;6.70;99.90;;;;;;4969735;28;20487;-77
2022/01/23 09:44:31;;;;;;;99.55;39.85;;;6.60;99.90;;;;;;4972001;28;20050;-76
2022/01/23 09:46:57;;;;;;;92.93;41.00;;;6.50;99.90;;;;;;4983930;28;20022;-77
2022/01/23 09:49:25;;;;;;;100.32;41.53;;;6.50;99.90;;;;;;4973266;28;20031;-76
2022/01/23 09:51:54;;;;;;;92.18;40.33;;;6.60;99.90;;;;;;4968658;28;20023;-77
2022/01/23 09:54:21;;;;;;;85.65;39.40;;;6.70;99.90;;;;;;4964170;28;20118;-76
2022/01/23 09:56:46;;;;;;;89.03;39.85;;;6.80;99.90;;;;;;4969587;28;20630;-77
2022/01/23 09:59:14;;;;;;;79.28;36.45;;;6.80;99.90;;;;;;4986080;28;20534;-77
2022/01/23 10:01:41;;;;;;;88.70;38.42;;;6.90;99.90;;;;;;4971997;28;20027;-77
2022/01/23 10:04:07;;;;;;;87.75;37.65;;;7.00;99.90;;;;;;4972218;28;20027;-77
2022/01/23 10:06:32;;;;;;;94.38;39.63;;;7.00;99.90;;;;;;4971571;28;20019;-76
2022/01/23 10:08:59;;;;;;;88.22;38.45;;;7.10;99.90;;;;;;4961953;28;20034;-77
2022/01/23 10:11:29;;;;;;;90.55;39.13;;;7.10;99.90;;;;;;4969782;28;20503;-76
2022/01/23 10:13:54;;;;;;;81.53;37.45;;;7.20;99.90;;;;;;4972139;28;20506;-76
2022/01/23 10:16:20;;;;;;;90.85;39.90;;;7.20;99.90;;;;;;4972321;28;20038;-77
2022/01/23 10:18:47;;;;;;;82.30;37.90;;;7.20;99.90;;;;;;4967717;28;20047;-76
2022/01/23 10:21:14;;;;;;;83.32;37.00;;;7.30;99.90;;;;;;4969851;28;20027;-77
2022/01/23 10:23:41;;;;;;;81.88;37.17;;;7.30;99.90;;;;;;4969443;28;20078;-76
2022/01/23 10:26:06;;;;;;;82.50;37.13;;;7.40;99.90;;;;;;4961093;28;20070;-76
2022/01/23 10:28:34;;;;;;;89.95;36.42;;;7.40;99.90;;;;;;4971351;28;20391;-77
2022/01/23 10:31:05;;;;;;;81.82;35.20;;;7.50;99.90;;;;;;4968924;28;20117;-77
2022/01/23 10:33:37;;;;;;;76.18;33.20;;;7.50;99.90;;;;;;4972875;28;20022;-77
2022/01/23 10:36:15;;;;;;;72.13;33.70;;;7.50;99.90;;;;;;4970543;28;20056;-77
2022/01/23 10:38:54;;;;;;;69.43;31.83;;;7.50;99.90;;;;;;4966059;28;20066;-78
2022/01/23 10:50:08;;;;;;;65.93;30.65;;;7.60;99.90;;;;;;4974911;28;20026;-76
2022/01/23 10:52:39;;;;;;;59.83;29.42;;;7.70;99.90;;;;;;4974938;28;20121;-77
2022/01/23 10:55:12;;;;;;;62.00;29.67;;;7.70;99.90;;;;;;4970229;28;20038;-76
2022/01/23 10:57:42;;;;;;;67.45;29.95;;;7.80;99.90;;;;;;4970268;28;20031;-76
2022/01/23 11:00:30;;;;;;;56.95;28.35;;;7.80;99.90;;;;;;4974608;28;20031;-76
2022/01/23 11:02:58;;;;;;;61.28;29.40;;;7.90;99.90;;;;;;4973412;28;20035;-77
2022/01/23 11:05:35;;;;;;;60.22;30.55;;;8.00;99.90;;;;;;4977447;28;20097;-76
2022/01/23 11:08:02;;;;;;;62.13;29.55;;;8.00;99.90;;;;;;4966536;28;20030;-77
2022/01/23 11:10:28;;;;;;;50.72;26.77;;;8.10;99.90;;;;;;4972501;28;20065;-77
2022/01/23 11:18:07;;;;;;;45.25;24.50;;;8.20;99.90;;;;;;4969619;28;20544;-77
2022/01/23 11:20:50;;;;;;;51.17;24.45;;;8.20;99.90;;;;;;4973128;28;20035;-76
2022/01/23 11:23:24;;;;;;;49.83;23.98;;;8.30;99.90;;;;;;4974934;28;20561;-76
2022/01/23 11:25:55;;;;;;;51.13;24.60;;;8.30;99.90;;;;;;4973151;28;20039;-77
2022/01/23 11:28:37;;;;;;;44.47;23.65;;;8.30;99.90;;;;;;4973586;28;20078;-76
2022/01/23 11:31:05;;;;;;;45.15;24.17;;;8.20;99.90;;;;;;4967021;28;20038;-76
2022/01/23 11:33:32;;;;;;;47.05;24.70;;;8.20;99.90;;;;;;4956357;28;20456;-77
2022/01/23 11:35:58;;;;;;;52.05;24.75;;;8.20;99.90;;;;;;4973653;28;20116;-77
2022/01/23 11:38:24;;;;;;;50.85;26.50;;;8.30;99.90;;;;;;4970145;28;20027;-76
2022/01/23 11:54:44;;;;;;;42.65;21.95;;;8.30;99.90;;;;;;4974420;28;20109;-77
2022/01/23 11:57:35;;;;;;;42.47;22.48;;;8.30;99.90;;;;;;4971962;28;20069;-77
2022/01/23 12:00:07;;;;;;;45.80;23.02;;;8.30;99.90;;;;;;4971111;28;20023;-77
2022/01/23 12:02:38;;;;;;;48.22;23.05;;;8.40;99.90;;;;;;4970772;28;20467;-77
2022/01/23 12:05:13;;;;;;;47.17;24.35;;;8.40;99.90;;;;;;4960423;28;20026;-77
2022/01/23 12:07:40;;;;;;;40.25;22.55;;;8.40;99.90;;;;;;4973816;28;20027;-76
2022/01/23 12:10:25;;;;;;;39.58;21.00;;;8.40;99.90;;;;;;4971873;28;20023;-77
2022/01/23 12:13:33;;;;;;;46.33;24.98;;;8.50;99.90;;;;;;4971416;28;20073;-76
2022/01/23 12:18:43;;;;;;;47.97;23.95;;;8.40;99.90;;;;;;4974017;28;20070;-77
2022/01/23 12:21:29;;;;;;;39.30;21.45;;;8.40;99.90;;;;;;4971464;28;20031;-76
2022/01/23 12:24:02;;;;;;;40.17;22.00;;;8.50;99.90;;;;;;4973775;28;20129;-77
2022/01/23 12:26:28;;;;;;;43.42;23.33;;;8.50;99.90;;;;;;4973938;28;20026;-77
2022/01/23 12:28:54;;;;;;;37.97;21.58;;;8.60;99.90;;;;;;4970347;28;20041;-76
2022/01/23 12:31:27;;;;;;;38.08;20.67;;;8.60;99.90;;;;;;4973508;28;20387;-76
2022/01/23 12:33:57;;;;;;;45.47;22.52;;;8.50;99.90;;;;;;4988764;28;20130;-76
2022/01/23 12:36:31;;;;;;;42.75;21.10;;;8.50;99.90;;;;;;4973574;28;20023;-76
2022/01/23 12:39:07;;;;;;;39.97;22.08;;;8.50;99.90;;;;;;4974024;28;20015;-76
2022/01/23 12:41:39;;;;;;;39.97;21.90;;;8.50;99.90;;;;;;4968805;28;20387;-77
2022/01/23 12:44:08;;;;;;;39.55;20.60;;;8.40;99.90;;;;;;4972376;28;20046;-76
2022/01/23 12:46:40;;;;;;;43.17;19.90;;;8.50;99.90;;;;;;4970697;28;20025;-76
2022/01/23 12:49:17;;;;;;;;;;;8.50;99.90;;;;;;4974189;28;20027;-77
2022/01/23 12:51:43;;;;;;;40.92;20.27;;;8.50;99.90;;;;;;4972315;28;19910;-76
2022/01/23 12:54:12;;;;;;;33.97;18.35;;;8.40;99.90;;;;;;4973169;28;20046;-76
2022/01/23 12:56:43;;;;;;;38.60;20.25;;;8.40;99.90;;;;;;4969299;28;20018;-76
2022/01/23 12:59:13;;;;;;;36.38;20.27;;;8.50;99.90;;;;;;4973467;28;20029;-75
2022/01/23 13:01:43;;;;;;;38.22;21.52;;;8.50;99.90;;;;;;4972677;28;20118;-76
2022/01/23 13:04:09;;;;;;;32.63;18.98;;;8.50;99.90;;;;;;4973062;28;20031;-76
2022/01/23 13:06:55;;;;;;;35.17;19.27;;;8.50;99.90;;;;;;4971643;28;20046;-77
2022/01/23 13:10:05;;;;;;;36.42;18.83;;;8.50;99.90;;;;;;4969444;28;21912;-77
2022/01/23 13:12:49;;;;;;;34.95;19.45;;;8.50;99.90;;;;;;4951537;28;20139;-76
2022/01/23 13:27:03;;;;;;;35.47;18.65;;;8.70;99.90;;;;;;4964467;28;20173;-76
2022/01/23 13:32:19;;;;;;;33.38;18.25;;;8.60;99.90;;;;;;4965877;28;20046;-75
2022/01/23 13:34:52;;;;;;;34.83;18.33;;;8.60;99.90;;;;;;4969350;28;20102;-75
2022/01/23 13:37:22;;;;;;;33.40;18.60;;;8.60;99.90;;;;;;4969903;28;20025;-77
2022/01/23 13:39:58;;;;;;;36.30;19.67;;;8.60;99.90;;;;;;4957320;28;20041;-77
2022/01/23 13:59:46;;;;;;;32.22;17.58;;;8.50;99.90;;;;;;4963362;28;20126;-76
2022/01/23 14:02:18;;;;;;;32.05;16.75;;;8.60;99.90;;;;;;4971393;28;20086;-76
2022/01/23 14:05:00;;;;;;;28.10;16.38;;;8.60;99.90;;;;;;4967556;28;20023;-75
2022/01/23 14:07:27;;;;;;;35.22;18.38;;;8.60;99.90;;;;;;4970865;28;20398;-76
2022/01/23 14:09:59;;;;;;;30.88;17.63;;;8.50;99.90;;;;;;4971781;28;20050;-77
2022/01/23 14:12:26;;;;;;;33.47;18.13;;;8.50;99.90;;;;;;4957643;28;20035;-77
2022/01/23 14:15:05;;;;;;;37.15;19.30;;;8.50;99.90;;;;;;4970711;28;20086;-76
2022/01/23 14:17:36;;;;;;;31.02;18.25;;;8.50;99.90;;;;;;4968859;28;20065;-77
2022/01/23 14:20:01;;;;;;;33.92;18.55;;;8.40;99.90;;;;;;4975890;28;20034;-77
2022/01/23 14:22:33;;;;;;;34.22;18.30;;;8.40;99.90;;;;;;4974461;28;20057;-76
2022/01/23 14:25:18;;;;;;;34.22;19.08;;;8.40;99.90;;;;;;4974494;28;20054;-75
2022/01/23 14:28:12;;;;;;;30.75;17.10;;;8.40;99.90;;;;;;4956677;29;20041;-75
2022/01/23 14:30:44;;;;;;;30.63;17.60;;;8.40;99.90;;;;;;4972929;28;20027;-76
2022/01/23 14:33:11;;;;;;;;;;;8.40;99.90;;;;;;4975342;28;20031;-76
2022/01/23 14:35:37;;;;;;;29.25;16.30;;;8.30;99.90;;;;;;4972415;28;20403;-76
2022/01/23 14:38:13;;;;;;;28.27;15.90;;;8.20;99.90;;;;;;4957609;28;20023;-76
2022/01/23 14:40:50;;;;;;;29.70;15.82;;;8.20;99.90;;;;;;4973822;28;20567;-77
2022/01/23 14:43:15;;;;;;;25.80;15.02;;;8.20;99.90;;;;;;4973024;28;20395;-77
2022/01/23 14:45:47;;;;;;;31.50;17.17;;;8.20;99.90;;;;;;4953171;28;20501;-76
2022/01/23 14:48:14;;;;;;;26.95;15.75;;;8.20;99.90;;;;;;4972210;28;20023;-77
2022/01/23 14:50:43;;;;;;;27.10;16.05;;;8.20;99.90;;;;;;4969291;28;20106;-77
2022/01/23 14:53:17;;;;;;;27.52;15.10;;;8.20;99.90;;;;;;4972396;28;20027;-77
2022/01/23 14:55:47;;;;;;;25.52;15.43;;;8.20;99.90;;;;;;4973873;28;20118;-77
2022/01/23 14:58:17;;;;;;;27.40;15.60;;;8.20;99.90;;;;;;4975478;28;20022;-77
2022/01/23 15:00:43;;;;;;;26.60;15.95;;;8.20;99.90;;;;;;4975044;28;20497;-77
2022/01/23 15:03:09;;;;;;;31.17;16.13;;;8.20;99.90;;;;;;4972754;28;20591;-77
2022/01/23 15:05:38;;;;;;;30.52;17.00;;;8.10;99.90;;;;;;4970976;28;20102;-77
2022/01/23 15:08:05;;;;;;;28.30;16.35;;;8.10;99.90;;;;;;4972796;28;20509;-76
2022/01/23 15:10:31;;;;;;;28.55;15.65;;;8.10;99.90;;;;;;4968262;28;20058;-76
2022/01/23 15:12:58;;;;;;;26.38;15.02;;;8.00;99.90;;;;;;4974476;28;20074;-77
2022/01/23 15:15:24;;;;;;;27.02;15.63;;;8.00;99.90;;;;;;4972768;28;20046;-78
2022/01/23 15:17:50;;;;;;;25.63;15.48;;;8.00;99.90;;;;;;4971096;28;20031;-77
2022/01/23 15:20:17;;;;;;;28.08;16.02;;;8.00;99.90;;;;;;4973056;28;20085;-77
2022/01/23 15:22:44;;;;;;;30.98;17.23;;;8.00;99.90;;;;;;4967430;28;20423;-77
2022/01/23 15:25:11;;;;;;;27.90;15.90;;;7.90;99.90;;;;;;4973041;28;20499;-77
2022/01/23 15:27:37;;;;;;;27.40;14.93;;;7.90;99.90;;;;;;4953452;28;20031;-77
2022/01/23 15:30:05;;;;;;;26.90;14.93;;;7.80;99.90;;;;;;4958231;28;20031;-77
2022/01/23 15:32:31;;;;;;;24.38;14.52;;;7.80;99.90;;;;;;4958840;28;20023;-78
2022/01/23 15:34:57;;;;;;;28.25;14.75;;;7.70;99.90;;;;;;4964367;28;20035;-77
2022/01/23 15:37:22;;;;;;;26.08;14.57;;;7.70;99.90;;;;;;4973773;28;20070;-77
2022/01/23 15:39:48;;;;;;;23.50;13.88;;;7.70;99.90;;;;;;4969044;28;20117;-77
2022/01/23 15:42:14;;;;;;;26.75;14.30;;;7.60;99.90;;;;;;4970492;28;20031;-77
2022/01/23 15:44:40;;;;;;;28.65;14.63;;;7.60;99.90;;;;;;4957113;28;20577;-77
2022/01/23 15:47:06;;;;;;;24.30;14.70;;;7.50;99.90;;;;;;4985588;28;20055;-77
2022/01/23 15:49:31;;;;;;;28.40;14.48;;;7.50;99.90;;;;;;4972395;28;20161;-78
2022/01/23 15:51:57;;;;;;;23.75;12.68;;;7.50;99.90;;;;;;4973311;28;20034;-78
2022/01/23 15:54:23;;;;;;;26.35;14.65;;;7.50;99.90;;;;;;4973504;28;20170;-78
2022/01/23 15:56:51;;;;;;;24.20;14.50;;;7.50;99.90;;;;;;4972421;28;20023;-76
2022/01/23 15:59:18;;;;;;;26.65;15.00;;;7.50;99.90;;;;;;4972456;28;20015;-76
2022/01/23 16:01:48;;;;;;;27.15;16.10;;;7.40;99.90;;;;;;4956652;28;20026;-78
2022/01/23 16:07:18;;;;;;;25.65;14.45;;;7.40;99.90;;;;;;4950348;28;20489;-94
2022/01/23 16:09:45;;;;;;;25.27;13.98;;;7.40;99.90;;;;;;4939667;29;20043;-93
2022/01/23 16:12:13;;;;;;;28.65;14.82;;;7.40;99.90;;;;;;4938630;28;20050;-94
2022/01/23 16:14:38;;;;;;;30.13;17.58;;;7.30;99.90;;;;;;4938587;29;20054;-94
2022/01/23 16:17:04;;;;;;;36.10;20.40;;;7.30;99.90;;;;;;4937248;29;20031;-94
2022/01/23 16:19:30;;;;;;;40.83;21.17;;;7.30;99.90;;;;;;4939319;29;20030;-94
2022/01/23 16:21:56;;;;;;;37.17;20.40;;;7.30;99.90;;;;;;4955901;29;20035;-93